createdAt,value
2023-05-03T00:00:15.890Z,1004.05
2023-05-03T00:01:15.881Z,1004.03
2023-05-03T00:02:15.932Z,1004.06
2023-05-03T00:03:15.906Z,1004.12
2023-05-03T00:04:15.892Z,1004.10
2023-05-03T00:05:15.901Z,1004.05
2023-05-03T00:06:15.894Z,1004.07
2023-05-03T00:07:15.839Z,1004.03
2023-05-03T00:08:15.840Z,1004.01
2023-05-03T00:09:15.841Z,1004.04
2023-05-03T00:10:15.875Z,1004.06
2023-05-03T00:11:15.817Z,1004.00
2023-05-03T00:12:15.800Z,1003.98
2023-05-03T00:13:15.791Z,1003.94
2023-05-03T00:14:15.811Z,1003.99
2023-05-03T00:15:15.778Z,1003.98
2023-05-03T00:16:15.780Z,1003.98
2023-05-03T00:17:15.805Z,1003.99
2023-05-03T00:18:15.756Z,1004.03
2023-05-03T00:19:30.375Z,1004.03
2023-05-03T00:20:17.740Z,1003.96
2023-05-03T00:21:15.732Z,1003.92
2023-05-03T00:22:15.726Z,1004.00
2023-05-03T00:23:15.763Z,1003.97
2023-05-03T00:24:15.736Z,1003.93
2023-05-03T00:25:15.702Z,1003.92
2023-05-03T00:26:15.698Z,1003.94
2023-05-03T00:27:15.694Z,1003.92
2023-05-03T00:28:15.680Z,1003.93
2023-05-03T00:29:15.696Z,1003.88
2023-05-03T00:30:15.672Z,1003.96
2023-05-03T00:31:15.656Z,1003.92
2023-05-03T00:32:16.646Z,1003.97
2023-05-03T00:33:15.647Z,1003.91
2023-05-03T00:34:15.663Z,1004.00
2023-05-03T00:35:15.634Z,1003.96
2023-05-03T00:36:15.653Z,1004.00
2023-05-03T00:37:15.617Z,1003.98
2023-05-03T00:38:15.631Z,1003.98
2023-05-03T00:39:15.622Z,1003.99
2023-05-03T00:40:15.581Z,1003.97
2023-05-03T00:41:15.584Z,1003.92
2023-05-03T00:42:15.571Z,1003.94
2023-05-03T00:43:15.571Z,1003.94
2023-05-03T00:44:15.586Z,1003.87
2023-05-03T00:45:15.557Z,1003.91
2023-05-03T00:46:17.118Z,1003.87
2023-05-03T00:47:16.681Z,1003.88
2023-05-03T00:48:15.533Z,1003.85
2023-05-03T00:49:15.550Z,1003.85
2023-05-03T00:50:15.518Z,1003.86
2023-05-03T00:51:15.505Z,1003.90
2023-05-03T00:52:15.499Z,1003.84
2023-05-03T00:53:15.485Z,1003.89
2023-05-03T00:54:15.509Z,1003.85
2023-05-03T00:55:15.472Z,1003.88
2023-05-03T00:56:15.476Z,1003.83
2023-05-03T00:57:15.459Z,1003.85
2023-05-03T00:58:15.457Z,1003.80
2023-05-03T00:59:15.489Z,1003.88
2023-05-03T01:00:15.442Z,1003.89
2023-05-03T01:01:15.485Z,1003.88
2023-05-03T01:02:15.430Z,1003.87
2023-05-03T01:03:15.462Z,1003.88
2023-05-03T01:04:15.440Z,1003.84
2023-05-03T01:05:15.408Z,1003.92
2023-05-03T01:06:15.475Z,1003.92
2023-05-03T01:07:15.402Z,1003.94
2023-05-03T01:08:15.381Z,1003.90
2023-05-03T01:09:15.405Z,1003.92
2023-05-03T01:10:15.373Z,1003.84
2023-05-03T01:11:15.383Z,1003.92
2023-05-03T01:12:15.359Z,1003.89
2023-05-03T01:13:15.348Z,1003.86
2023-05-03T01:14:15.333Z,1003.88
2023-05-03T01:15:15.329Z,1003.83
2023-05-03T01:16:15.387Z,1003.87
2023-05-03T01:17:15.324Z,1003.90
2023-05-03T01:18:15.335Z,1003.89
2023-05-03T01:19:15.291Z,1003.86
2023-05-03T01:20:15.315Z,1003.91
2023-05-03T01:21:15.316Z,1003.88
2023-05-03T01:22:15.275Z,1003.89
2023-05-03T01:23:15.271Z,1003.89
2023-05-03T01:24:15.269Z,1003.92
2023-05-03T01:25:15.287Z,1003.88
2023-05-03T01:26:15.256Z,1003.96
2023-05-03T01:27:15.228Z,1003.95
2023-05-03T01:28:15.227Z,1003.96
2023-05-03T01:29:15.218Z,1003.96
2023-05-03T01:30:15.244Z,1003.92
2023-05-03T01:31:15.261Z,1003.93
2023-05-03T01:32:15.193Z,1003.97
2023-05-03T01:33:15.183Z,1004.00
2023-05-03T01:34:15.176Z,1004.04
2023-05-03T01:35:15.195Z,1003.94
2023-05-03T01:36:15.165Z,1003.95
2023-05-03T01:37:15.161Z,1003.90
2023-05-03T01:38:15.161Z,1003.94
2023-05-03T01:39:15.137Z,1003.94
2023-05-03T01:40:15.161Z,1003.96
2023-05-03T01:41:15.125Z,1004.01
2023-05-03T01:42:15.120Z,1004.02
2023-05-03T01:43:15.109Z,1004.06
2023-05-03T01:44:15.132Z,1004.05
2023-05-03T01:45:15.467Z,1004.02
2023-05-03T01:46:15.116Z,1004.10
2023-05-03T01:47:15.118Z,1004.01
2023-05-03T01:48:15.082Z,1004.03
2023-05-03T01:49:15.098Z,1004.02
2023-05-03T01:50:15.061Z,1003.99
2023-05-03T01:51:15.054Z,1004.07
2023-05-03T01:52:15.043Z,1003.99
2023-05-03T01:53:15.055Z,1003.91
2023-05-03T01:54:15.061Z,1003.93
2023-05-03T01:55:15.024Z,1003.93
2023-05-03T01:56:15.011Z,1003.88
2023-05-03T01:57:15.006Z,1003.93
2023-05-03T01:58:15.022Z,1003.90
2023-05-03T01:59:15.019Z,1003.89
2023-05-03T02:00:14.992Z,1003.90
2023-05-03T02:01:15.004Z,1003.92
2023-05-03T02:02:14.977Z,1003.95
2023-05-03T02:03:14.977Z,1003.97
2023-05-03T02:04:15.998Z,1003.95
2023-05-03T02:05:14.944Z,1003.98
2023-05-03T02:06:14.956Z,1003.97
2023-05-03T02:07:14.935Z,1003.99
2023-05-03T02:08:14.954Z,1004.01
2023-05-03T02:09:14.926Z,1004.00
2023-05-03T02:10:15.087Z,1004.05
2023-05-03T02:11:14.890Z,1004.00
2023-05-03T02:12:14.887Z,1003.95
2023-05-03T02:13:14.914Z,1003.98
2023-05-03T02:14:14.882Z,1003.97
2023-05-03T02:15:14.878Z,1004.01
2023-05-03T02:16:14.875Z,1004.05
2023-05-03T02:17:14.856Z,1003.98
2023-05-03T02:18:14.859Z,1003.97
2023-05-03T02:19:15.837Z,1004.03
2023-05-03T02:20:14.826Z,1004.03
2023-05-03T02:21:14.823Z,1003.97
2023-05-03T02:22:14.841Z,1004.02
2023-05-03T02:23:14.861Z,1004.05
2023-05-03T02:24:14.808Z,1003.96
2023-05-03T02:25:14.830Z,1003.97
2023-05-03T02:26:14.781Z,1004.06
2023-05-03T02:27:14.808Z,1003.98
2023-05-03T02:28:14.778Z,1004.04
2023-05-03T02:29:14.778Z,1004.06
2023-05-03T02:30:14.752Z,1004.07
2023-05-03T02:31:14.765Z,1004.02
2023-05-03T02:32:14.769Z,1004.09
2023-05-03T02:33:14.738Z,1004.08
2023-05-03T02:34:14.731Z,1004.12
2023-05-03T02:35:14.731Z,1004.05
2023-05-03T02:36:14.717Z,1004.08
2023-05-03T02:37:14.739Z,1004.16
2023-05-03T02:38:14.695Z,1004.09
2023-05-03T02:39:14.692Z,1004.16
2023-05-03T02:40:14.685Z,1004.09
2023-05-03T02:41:14.669Z,1004.11
2023-05-03T02:42:14.690Z,1004.11
2023-05-03T02:43:14.675Z,1004.15
2023-05-03T02:44:14.655Z,1004.16
2023-05-03T02:45:14.647Z,1004.15
2023-05-03T02:46:14.711Z,1004.21
2023-05-03T02:47:14.664Z,1004.11
2023-05-03T02:48:14.637Z,1004.19
2023-05-03T02:49:14.616Z,1004.17
2023-05-03T02:50:14.612Z,1004.21
2023-05-03T02:51:14.675Z,1004.14
2023-05-03T02:52:14.618Z,1004.07
2023-05-03T02:53:14.611Z,1004.09
2023-05-03T02:54:14.580Z,1004.11
2023-05-03T02:55:14.600Z,1004.17
2023-05-03T02:56:14.598Z,1004.09
2023-05-03T02:57:14.578Z,1004.10
2023-05-03T02:58:14.545Z,1004.13
2023-05-03T02:59:14.636Z,1004.05
2023-05-03T03:00:14.546Z,1004.08
2023-05-03T03:01:14.619Z,1004.10
2023-05-03T03:02:14.521Z,1004.07
2023-05-03T03:03:14.628Z,1004.11
2023-05-03T03:04:14.503Z,1004.14
2023-05-03T03:05:14.502Z,1004.14
2023-05-03T03:06:14.529Z,1004.21
2023-05-03T03:07:14.475Z,1004.14
2023-05-03T03:08:14.469Z,1004.12
2023-05-03T03:09:14.454Z,1004.15
2023-05-03T03:10:14.478Z,1004.15
2023-05-03T03:11:14.465Z,1004.16
2023-05-03T03:12:14.436Z,1004.12
2023-05-03T03:13:14.427Z,1004.19
2023-05-03T03:14:14.421Z,1004.19
2023-05-03T03:15:14.443Z,1004.23
2023-05-03T03:16:14.451Z,1004.22
2023-05-03T03:17:14.402Z,1004.17
2023-05-03T03:18:14.390Z,1004.25
2023-05-03T03:19:14.393Z,1004.24
2023-05-03T03:20:14.397Z,1004.22
2023-05-03T03:21:14.372Z,1004.29
2023-05-03T03:22:14.365Z,1004.32
2023-05-03T03:23:14.352Z,1004.40
2023-05-03T03:24:14.371Z,1004.30
2023-05-03T03:25:14.369Z,1004.32
2023-05-03T03:26:14.333Z,1004.39
2023-05-03T03:27:14.321Z,1004.49
2023-05-03T03:28:14.313Z,1004.38
2023-05-03T03:29:14.333Z,1004.31
2023-05-03T03:30:14.324Z,1004.41
2023-05-03T03:31:14.310Z,1004.38
2023-05-03T03:32:14.286Z,1004.36
2023-05-03T03:33:14.314Z,1004.49
2023-05-03T03:34:14.290Z,1004.47
2023-05-03T03:35:14.270Z,1004.45
2023-05-03T03:36:14.253Z,1004.46
2023-05-03T03:37:14.248Z,1004.41
2023-05-03T03:38:14.263Z,1004.43
2023-05-03T03:39:14.256Z,1004.39
2023-05-03T03:40:14.219Z,1004.35
2023-05-03T03:41:14.230Z,1004.38
2023-05-03T03:42:14.208Z,1004.39
2023-05-03T03:43:14.254Z,1004.39
2023-05-03T03:44:14.205Z,1004.41
2023-05-03T03:45:14.189Z,1004.36
2023-05-03T03:46:14.180Z,1004.38
2023-05-03T03:47:14.377Z,1004.38
2023-05-03T03:48:14.218Z,1004.46
2023-05-03T03:49:14.153Z,1004.37
2023-05-03T03:50:14.156Z,1004.45
2023-05-03T03:51:14.141Z,1004.36
2023-05-03T03:52:14.142Z,1004.37
2023-05-03T03:53:14.148Z,1004.39
2023-05-03T03:54:14.117Z,1004.38
2023-05-03T03:55:14.105Z,1004.33
2023-05-03T03:56:14.102Z,1004.40
2023-05-03T03:57:14.119Z,1004.34
2023-05-03T03:58:14.116Z,1004.35
2023-05-03T03:59:14.087Z,1004.41
2023-05-03T04:00:14.079Z,1004.43
2023-05-03T04:01:14.069Z,1004.28
2023-05-03T04:02:14.120Z,1004.33
2023-05-03T04:03:14.137Z,1004.29
2023-05-03T04:04:14.218Z,1004.34
2023-05-03T04:05:14.038Z,1004.27
2023-05-03T04:06:14.101Z,1004.31
2023-05-03T04:07:14.052Z,1004.38
2023-05-03T04:08:14.018Z,1004.39
2023-05-03T04:09:14.003Z,1004.35
2023-05-03T04:10:13.997Z,1004.34
2023-05-03T04:11:14.013Z,1004.35
2023-05-03T04:12:14.007Z,1004.41
2023-05-03T04:13:13.979Z,1004.42
2023-05-03T04:14:13.967Z,1004.44
2023-05-03T04:15:13.984Z,1004.38
2023-05-03T04:16:13.980Z,1004.40
2023-05-03T04:17:14.100Z,1004.37
2023-05-03T04:18:13.965Z,1004.33
2023-05-03T04:19:13.948Z,1004.28
2023-05-03T04:20:14.040Z,1004.35
2023-05-03T04:21:13.937Z,1004.34
2023-05-03T04:22:13.908Z,1004.33
2023-05-03T04:23:13.897Z,1004.38
2023-05-03T04:24:13.892Z,1004.43
2023-05-03T04:25:13.931Z,1004.42
2023-05-03T04:26:27.489Z,1004.42
2023-05-03T04:27:15.877Z,1004.43
2023-05-03T04:28:13.883Z,1004.46
2023-05-03T04:29:13.855Z,1004.46
2023-05-03T04:30:13.862Z,1004.46
2023-05-03T04:31:13.895Z,1004.54
2023-05-03T04:32:13.828Z,1004.51
2023-05-03T04:33:13.954Z,1004.49
2023-05-03T04:34:13.813Z,1004.60
2023-05-03T04:35:13.831Z,1004.57
2023-05-03T04:36:13.798Z,1004.66
2023-05-03T04:37:13.794Z,1004.57
2023-05-03T04:38:13.781Z,1004.58
2023-05-03T04:39:13.774Z,1004.62
2023-05-03T04:40:13.792Z,1004.67
2023-05-03T04:41:15.947Z,1004.70
2023-05-03T04:42:13.756Z,1004.64
2023-05-03T04:43:13.755Z,1004.72
2023-05-03T04:44:13.753Z,1004.66
2023-05-03T04:45:13.764Z,1004.64
2023-05-03T04:46:13.765Z,1004.66
2023-05-03T04:47:13.712Z,1004.68
2023-05-03T04:48:13.908Z,1004.66
2023-05-03T04:49:13.700Z,1004.70
2023-05-03T04:50:13.718Z,1004.70
2023-05-03T04:51:14.686Z,1004.73
2023-05-03T04:52:13.684Z,1004.76
2023-05-03T04:53:13.675Z,1004.75
2023-05-03T04:54:13.698Z,1004.74
2023-05-03T04:55:13.677Z,1004.76
2023-05-03T04:56:13.640Z,1004.81
2023-05-03T04:57:13.643Z,1004.76
2023-05-03T04:58:13.635Z,1004.77
2023-05-03T04:59:13.636Z,1004.73
2023-05-03T05:00:13.654Z,1004.79
2023-05-03T05:01:13.658Z,1004.74
2023-05-03T05:02:13.603Z,1004.73
2023-05-03T05:03:13.656Z,1004.71
2023-05-03T05:04:13.604Z,1004.74
2023-05-03T05:05:14.601Z,1004.70
2023-05-03T05:06:13.631Z,1004.77
2023-05-03T05:07:13.556Z,1004.75
2023-05-03T05:08:13.574Z,1004.78
2023-05-03T05:09:13.572Z,1004.79
2023-05-03T05:10:13.528Z,1004.80
2023-05-03T05:11:13.523Z,1004.74
2023-05-03T05:12:13.532Z,1004.75
2023-05-03T05:13:13.540Z,1004.67
2023-05-03T05:14:13.524Z,1004.67
2023-05-03T05:15:13.494Z,1004.71
2023-05-03T05:16:13.485Z,1004.68
2023-05-03T05:17:13.498Z,1004.64
2023-05-03T05:18:13.516Z,1004.67
2023-05-03T05:19:13.482Z,1004.70
2023-05-03T05:20:13.487Z,1004.69
2023-05-03T05:21:13.453Z,1004.74
2023-05-03T05:22:13.440Z,1004.73
2023-05-03T05:23:13.428Z,1004.72
2023-05-03T05:24:13.450Z,1004.77
2023-05-03T05:25:13.455Z,1004.76
2023-05-03T05:26:13.406Z,1004.79
2023-05-03T05:27:13.395Z,1004.76
2023-05-03T05:28:13.411Z,1004.76
2023-05-03T05:29:13.404Z,1004.89
2023-05-03T05:30:13.375Z,1004.79
2023-05-03T05:31:13.509Z,1004.83
2023-05-03T05:32:13.361Z,1004.84
2023-05-03T05:33:13.433Z,1004.86
2023-05-03T05:34:13.409Z,1004.87
2023-05-03T05:35:13.326Z,1004.83
2023-05-03T05:36:13.325Z,1004.82
2023-05-03T05:37:13.329Z,1004.88
2023-05-03T05:38:13.340Z,1004.81
2023-05-03T05:39:13.306Z,1004.89
2023-05-03T05:40:13.293Z,1004.92
2023-05-03T05:41:13.301Z,1004.95
2023-05-03T05:42:13.278Z,1004.95
2023-05-03T05:43:13.296Z,1004.97
2023-05-03T05:44:13.293Z,1005.06
2023-05-03T05:45:13.265Z,1005.11
2023-05-03T05:46:13.245Z,1005.13
2023-05-03T05:47:13.281Z,1005.12
2023-05-03T05:48:13.329Z,1005.18
2023-05-03T05:49:13.219Z,1005.14
2023-05-03T05:50:18.249Z,1005.26
2023-05-03T05:51:15.230Z,1005.21
2023-05-03T05:52:13.255Z,1005.26
2023-05-03T05:53:13.208Z,1005.25
2023-05-03T05:54:13.188Z,1005.25
2023-05-03T05:55:13.175Z,1005.26
2023-05-03T05:56:13.177Z,1005.22
2023-05-03T05:57:13.191Z,1005.29
2023-05-03T05:58:13.160Z,1005.28
2023-05-03T05:59:13.157Z,1005.29
2023-05-03T06:00:13.207Z,1005.30
2023-05-03T06:01:13.162Z,1005.31
2023-05-03T06:02:13.177Z,1005.26
2023-05-03T06:03:13.186Z,1005.32
2023-05-03T06:04:13.114Z,1005.33
2023-05-03T06:05:13.160Z,1005.32
2023-05-03T06:06:13.149Z,1005.28
2023-05-03T06:07:13.084Z,1005.29
2023-05-03T06:08:13.074Z,1005.26
2023-05-03T06:09:24.261Z,1005.27
2023-05-03T06:10:15.118Z,1005.23
2023-05-03T06:11:13.098Z,1005.25
2023-05-03T06:12:13.052Z,1005.33
2023-05-03T06:13:13.044Z,1005.35
2023-05-03T06:14:13.032Z,1005.29
2023-05-03T06:15:13.036Z,1005.32
2023-05-03T06:16:13.048Z,1005.31
2023-05-03T06:17:13.132Z,1005.34
2023-05-03T06:18:13.161Z,1005.32
2023-05-03T06:19:12.996Z,1005.33
2023-05-03T06:20:13.102Z,1005.31
2023-05-03T06:21:13.000Z,1005.33
2023-05-03T06:22:12.977Z,1005.28
2023-05-03T06:23:12.964Z,1005.29
2023-05-03T06:24:13.032Z,1005.30
2023-05-03T06:25:15.098Z,1005.28
2023-05-03T06:26:12.948Z,1005.34
2023-05-03T06:27:12.933Z,1005.28
2023-05-03T06:28:12.929Z,1005.22
2023-05-03T06:29:12.924Z,1005.23
2023-05-03T06:30:12.959Z,1005.29
2023-05-03T06:31:12.941Z,1005.26
2023-05-03T06:32:12.921Z,1005.19
2023-05-03T06:33:12.962Z,1005.24
2023-05-03T06:34:12.887Z,1005.34
2023-05-03T06:35:12.907Z,1005.29
2023-05-03T06:36:12.873Z,1005.28
2023-05-03T06:37:12.883Z,1005.22
2023-05-03T06:38:12.862Z,1005.26
2023-05-03T06:39:12.867Z,1005.16
2023-05-03T06:40:12.866Z,1005.17
2023-05-03T06:41:12.841Z,1005.17
2023-05-03T06:42:12.841Z,1005.19
2023-05-03T06:43:12.842Z,1005.15
2023-05-03T06:44:12.817Z,1005.22
2023-05-03T06:45:12.849Z,1005.22
2023-05-03T06:46:12.866Z,1005.24
2023-05-03T06:47:12.814Z,1005.19
2023-05-03T06:48:12.929Z,1005.19
2023-05-03T06:49:12.790Z,1005.14
2023-05-03T06:50:12.816Z,1005.13
2023-05-03T06:51:12.767Z,1005.19
2023-05-03T06:52:12.769Z,1005.15
2023-05-03T06:53:12.755Z,1005.12
2023-05-03T06:54:12.772Z,1005.18
2023-05-03T06:55:12.825Z,1005.22
2023-05-03T06:56:12.737Z,1005.19
2023-05-03T06:57:12.725Z,1005.14
2023-05-03T06:58:12.721Z,1005.13
2023-05-03T06:59:12.751Z,1005.13
2023-05-03T07:00:12.700Z,1005.14
2023-05-03T07:01:12.713Z,1005.13
2023-05-03T07:02:12.713Z,1005.01
2023-05-03T07:03:12.762Z,1005.09
2023-05-03T07:04:12.780Z,1005.03
2023-05-03T07:05:12.676Z,1005.08
2023-05-03T07:06:12.692Z,1005.05
2023-05-03T07:07:12.716Z,1005.06
2023-05-03T07:08:12.652Z,1005.09
2023-05-03T07:09:12.668Z,1005.08
2023-05-03T07:10:12.665Z,1005.07
2023-05-03T07:11:12.637Z,1005.10
2023-05-03T07:12:12.627Z,1005.09
2023-05-03T07:13:12.639Z,1005.07
2023-05-03T07:14:12.653Z,1005.06
2023-05-03T07:15:12.607Z,1005.03
2023-05-03T07:16:12.629Z,1005.08
2023-05-03T07:17:12.615Z,1005.04
2023-05-03T07:18:12.690Z,1005.07
2023-05-03T07:19:12.676Z,1005.00
2023-05-03T07:20:12.557Z,1005.06
2023-05-03T07:21:12.554Z,1004.98
2023-05-03T07:22:12.551Z,1005.04
2023-05-03T07:23:12.645Z,1005.09
2023-05-03T07:24:12.564Z,1005.00
2023-05-03T07:25:12.651Z,1004.95
2023-05-03T07:26:12.537Z,1004.90
2023-05-03T07:27:12.538Z,1004.93
2023-05-03T07:28:12.537Z,1004.99
2023-05-03T07:29:12.512Z,1004.95
2023-05-03T07:30:12.516Z,1004.99
2023-05-03T07:31:12.544Z,1004.98
2023-05-03T07:32:12.535Z,1004.96
2023-05-03T07:33:12.713Z,1004.98
2023-05-03T07:34:12.467Z,1005.02
2023-05-03T07:35:12.455Z,1005.05
2023-05-03T07:36:12.457Z,1005.05
2023-05-03T07:37:12.480Z,1005.09
2023-05-03T07:38:12.445Z,1005.04
2023-05-03T07:39:12.436Z,1005.01
2023-05-03T07:40:12.422Z,1004.98
2023-05-03T07:41:12.435Z,1004.97
2023-05-03T07:42:12.459Z,1004.97
2023-05-03T07:43:12.418Z,1004.98
2023-05-03T07:44:12.479Z,1005.04
2023-05-03T07:45:12.395Z,1004.92
2023-05-03T07:46:12.509Z,1004.89
2023-05-03T07:47:12.498Z,1005.00
2023-05-03T07:48:12.406Z,1004.96
2023-05-03T07:49:12.486Z,1004.92
2023-05-03T07:50:12.361Z,1004.88
2023-05-03T07:51:12.370Z,1004.91
2023-05-03T07:52:12.421Z,1004.91
2023-05-03T07:53:12.325Z,1004.79
2023-05-03T07:54:12.334Z,1004.89
2023-05-03T07:55:12.451Z,1004.84
2023-05-03T07:56:12.395Z,1004.88
2023-05-03T07:57:12.323Z,1004.76
2023-05-03T07:58:12.401Z,1004.88
2023-05-03T07:59:12.299Z,1004.82
2023-05-03T08:00:12.271Z,1004.89
2023-05-03T08:01:12.300Z,1004.98
2023-05-03T08:02:12.429Z,1004.91
2023-05-03T08:03:12.523Z,1004.87
2023-05-03T08:04:12.533Z,1004.80
2023-05-03T08:05:12.327Z,1004.75
2023-05-03T08:06:12.393Z,1004.69
2023-05-03T08:07:12.219Z,1004.82
2023-05-03T08:08:12.318Z,1004.79
2023-05-03T08:09:12.218Z,1004.76
2023-05-03T08:10:12.346Z,1004.82
2023-05-03T08:11:12.199Z,1004.85
2023-05-03T08:12:12.190Z,1004.79
2023-05-03T08:13:12.191Z,1004.75
2023-05-03T08:14:12.170Z,1004.74
2023-05-03T08:15:12.200Z,1004.66
2023-05-03T08:16:12.171Z,1004.67
2023-05-03T08:17:12.156Z,1004.67
2023-05-03T08:18:12.152Z,1004.75
2023-05-03T08:19:12.138Z,1004.75
2023-05-03T08:20:12.179Z,1004.69
2023-05-03T08:21:12.188Z,1004.79
2023-05-03T08:22:12.113Z,1004.75
2023-05-03T08:23:12.239Z,1004.77
2023-05-03T08:24:12.832Z,1004.77
2023-05-03T08:25:12.157Z,1004.71
2023-05-03T08:26:12.091Z,1004.66
2023-05-03T08:27:12.078Z,1004.72
2023-05-03T08:28:12.081Z,1004.71
2023-05-03T08:29:12.087Z,1004.68
2023-05-03T08:30:12.091Z,1004.74
2023-05-03T08:31:12.094Z,1004.66
2023-05-03T08:32:12.044Z,1004.68
2023-05-03T08:33:12.092Z,1004.63
2023-05-03T08:34:13.069Z,1004.60
2023-05-03T08:35:12.068Z,1004.65
2023-05-03T08:36:12.020Z,1004.65
2023-05-03T08:37:12.013Z,1004.59
2023-05-03T08:38:12.001Z,1004.51
2023-05-03T08:39:12.041Z,1004.50
2023-05-03T08:40:11.982Z,1004.56
2023-05-03T08:41:11.980Z,1004.53
2023-05-03T08:42:12.004Z,1004.56
2023-05-03T08:43:11.963Z,1004.51
2023-05-03T08:44:11.980Z,1004.44
2023-05-03T08:45:11.968Z,1004.49
2023-05-03T08:46:11.999Z,1004.48
2023-05-03T08:47:11.929Z,1004.48
2023-05-03T08:48:11.973Z,1004.44
2023-05-03T08:49:11.939Z,1004.47
2023-05-03T08:50:11.940Z,1004.59
2023-05-03T08:51:11.899Z,1004.56
2023-05-03T08:52:11.894Z,1004.51
2023-05-03T08:53:11.905Z,1004.56
2023-05-03T08:54:11.902Z,1004.59
2023-05-03T08:55:11.895Z,1004.50
2023-05-03T08:56:11.859Z,1004.41
2023-05-03T08:57:11.857Z,1004.34
2023-05-03T08:58:11.916Z,1004.43
2023-05-03T08:59:11.866Z,1004.53
2023-05-03T09:00:11.828Z,1004.50
2023-05-03T09:01:11.853Z,1004.43
2023-05-03T09:02:11.873Z,1004.44
2023-05-03T09:03:11.985Z,1004.48
2023-05-03T09:04:11.921Z,1004.42
2023-05-03T09:05:11.800Z,1004.45
2023-05-03T09:06:11.804Z,1004.39
2023-05-03T09:07:11.830Z,1004.46
2023-05-03T09:08:11.828Z,1004.36
2023-05-03T09:09:11.761Z,1004.46
2023-05-03T09:10:11.760Z,1004.31
2023-05-03T09:11:11.799Z,1004.35
2023-05-03T09:12:11.741Z,1004.39
2023-05-03T09:13:11.784Z,1004.48
2023-05-03T09:14:11.733Z,1004.44
2023-05-03T09:15:11.756Z,1004.58
2023-05-03T09:16:11.868Z,1004.55
2023-05-03T09:17:11.711Z,1004.42
2023-05-03T09:18:11.926Z,1004.50
2023-05-03T09:19:11.906Z,1004.43
2023-05-03T09:20:11.688Z,1004.49
2023-05-03T09:21:11.671Z,1004.49
2023-05-03T09:22:11.667Z,1004.48
2023-05-03T09:23:11.713Z,1004.55
2023-05-03T09:24:11.652Z,1004.49
2023-05-03T09:25:11.669Z,1004.39
2023-05-03T09:26:11.653Z,1004.37
2023-05-03T09:27:11.623Z,1004.34
2023-05-03T09:28:11.647Z,1004.47
2023-05-03T09:29:11.604Z,1004.36
2023-05-03T09:30:12.614Z,1004.40
2023-05-03T09:31:13.343Z,1004.44
2023-05-03T09:32:12.629Z,1004.37
2023-05-03T09:33:11.695Z,1004.41
2023-05-03T09:34:11.581Z,1004.47
2023-05-03T09:35:11.572Z,1004.42
2023-05-03T09:36:11.610Z,1004.42
2023-05-03T09:37:11.551Z,1004.40
2023-05-03T09:38:11.626Z,1004.29
2023-05-03T09:39:11.611Z,1004.34
2023-05-03T09:40:11.533Z,1004.27
2023-05-03T09:41:11.526Z,1004.35
2023-05-03T09:42:11.513Z,1004.32
2023-05-03T09:43:11.627Z,1004.25
2023-05-03T09:44:11.501Z,1004.26
2023-05-03T09:45:11.490Z,1004.24
2023-05-03T09:46:11.533Z,1004.19
2023-05-03T09:47:11.482Z,1004.22
2023-05-03T09:48:11.566Z,1004.29
2023-05-03T09:49:11.488Z,1004.28
2023-05-03T09:50:11.449Z,1004.25
2023-05-03T09:51:11.563Z,1004.17
2023-05-03T09:52:11.442Z,1004.17
2023-05-03T09:53:11.442Z,1004.23
2023-05-03T09:54:11.467Z,1004.26
2023-05-03T09:55:11.425Z,1004.20
2023-05-03T09:56:11.411Z,1004.25
2023-05-03T09:57:11.395Z,1004.28
2023-05-03T09:58:11.407Z,1004.27
2023-05-03T09:59:11.478Z,1004.28
2023-05-03T10:00:11.524Z,1004.25
2023-05-03T10:01:11.407Z,1004.17
2023-05-03T10:02:11.371Z,1004.23
2023-05-03T10:03:11.358Z,1004.16
2023-05-03T10:04:11.449Z,1004.11
2023-05-03T10:05:11.355Z,1004.06
2023-05-03T10:06:11.366Z,1003.99
2023-05-03T10:07:12.497Z,1004.04
2023-05-03T10:08:12.317Z,1004.09
2023-05-03T10:09:11.329Z,1004.00
2023-05-03T10:10:11.304Z,1003.99
2023-05-03T10:11:11.290Z,1003.99
2023-05-03T10:12:11.280Z,1003.95
2023-05-03T10:13:12.386Z,1003.97
2023-05-03T10:14:12.286Z,1004.03
2023-05-03T10:15:11.327Z,1003.93
2023-05-03T10:16:11.288Z,1003.95
2023-05-03T10:17:11.355Z,1003.98
2023-05-03T10:18:11.263Z,1003.98
2023-05-03T10:19:12.132Z,1003.96
2023-05-03T10:20:11.211Z,1003.95
2023-05-03T10:21:11.211Z,1004.02
2023-05-03T10:22:11.202Z,1003.89
2023-05-03T10:23:11.214Z,1003.96
2023-05-03T10:24:11.181Z,1003.84
2023-05-03T10:25:11.802Z,1004.01
2023-05-03T10:26:11.160Z,1003.88
2023-05-03T10:27:11.156Z,1004.02
2023-05-03T10:28:11.179Z,1004.03
2023-05-03T10:29:11.146Z,1003.95
2023-05-03T10:30:11.144Z,1004.03
2023-05-03T10:31:11.177Z,1003.89
2023-05-03T10:32:11.118Z,1003.95
2023-05-03T10:33:11.172Z,1003.89
2023-05-03T10:34:11.105Z,1003.88
2023-05-03T10:35:11.101Z,1003.83
2023-05-03T10:36:11.098Z,1003.85
2023-05-03T10:37:11.113Z,1003.86
2023-05-03T10:38:11.094Z,1003.83
2023-05-03T10:39:11.054Z,1003.83
2023-05-03T10:40:11.052Z,1003.82
2023-05-03T10:41:11.035Z,1003.86
2023-05-03T10:42:11.031Z,1003.83
2023-05-03T10:43:11.027Z,1003.74
2023-05-03T10:44:11.048Z,1003.82
2023-05-03T10:45:11.007Z,1003.83
2023-05-03T10:46:11.011Z,1003.84
2023-05-03T10:47:10.981Z,1003.82
2023-05-03T10:48:11.104Z,1003.79
2023-05-03T10:49:10.966Z,1003.76
2023-05-03T10:50:10.959Z,1003.82
2023-05-03T10:51:10.958Z,1003.83
2023-05-03T10:52:10.942Z,1003.85
2023-05-03T10:53:10.962Z,1003.79
2023-05-03T10:54:10.934Z,1003.72
2023-05-03T10:55:10.917Z,1003.75
2023-05-03T10:56:11.071Z,1003.70
2023-05-03T10:57:10.902Z,1003.68
2023-05-03T10:58:10.932Z,1003.72
2023-05-03T10:59:10.888Z,1003.77
2023-05-03T11:00:10.879Z,1003.78
2023-05-03T11:01:10.919Z,1003.73
2023-05-03T11:02:10.866Z,1003.77
2023-05-03T11:03:10.919Z,1003.75
2023-05-03T11:04:10.940Z,1003.69
2023-05-03T11:05:11.107Z,1003.73
2023-05-03T11:06:10.870Z,1003.72
2023-05-03T11:07:10.825Z,1003.76
2023-05-03T11:08:10.844Z,1003.67
2023-05-03T11:09:10.810Z,1003.70
2023-05-03T11:10:10.807Z,1003.60
2023-05-03T11:11:10.801Z,1003.66
2023-05-03T11:12:10.787Z,1003.64
2023-05-03T11:13:10.826Z,1003.65
2023-05-03T11:14:10.781Z,1003.61
2023-05-03T11:15:10.773Z,1003.62
2023-05-03T11:16:10.820Z,1003.61
2023-05-03T11:17:10.765Z,1003.56
2023-05-03T11:18:10.808Z,1003.55
2023-05-03T11:19:10.763Z,1003.52
2023-05-03T11:20:10.731Z,1003.64
2023-05-03T11:21:10.727Z,1003.56
2023-05-03T11:22:10.807Z,1003.62
2023-05-03T11:23:10.708Z,1003.55
2023-05-03T11:24:10.733Z,1003.60
2023-05-03T11:25:10.743Z,1003.60
2023-05-03T11:26:10.680Z,1003.58
2023-05-03T11:27:10.705Z,1003.56
2023-05-03T11:28:10.680Z,1003.68
2023-05-03T11:29:10.724Z,1003.64
2023-05-03T11:30:10.648Z,1003.59
2023-05-03T11:31:10.636Z,1003.50
2023-05-03T11:32:10.843Z,1003.63
2023-05-03T11:33:10.642Z,1003.57
2023-05-03T11:34:10.645Z,1003.60
2023-05-03T11:35:10.743Z,1003.51
2023-05-03T11:36:10.602Z,1003.53
2023-05-03T11:37:10.591Z,1003.57
2023-05-03T11:38:10.596Z,1003.57
2023-05-03T11:39:10.642Z,1003.48
2023-05-03T11:40:10.579Z,1003.55
2023-05-03T11:41:10.570Z,1003.50
2023-05-03T11:42:10.575Z,1003.52
2023-05-03T11:43:10.591Z,1003.51
2023-05-03T11:44:16.896Z,1003.50
2023-05-03T11:45:12.575Z,1003.46
2023-05-03T11:46:10.652Z,1003.43
2023-05-03T11:47:10.626Z,1003.41
2023-05-03T11:48:10.550Z,1003.46
2023-05-03T11:49:10.559Z,1003.44
2023-05-03T11:50:11.025Z,1003.39
2023-05-03T11:51:10.512Z,1003.38
2023-05-03T11:52:10.541Z,1003.38
2023-05-03T11:53:10.492Z,1003.34
2023-05-03T11:54:23.983Z,1003.36
2023-05-03T11:55:12.607Z,1003.34
2023-05-03T11:56:11.482Z,1003.34
2023-05-03T11:57:10.438Z,1003.37
2023-05-03T11:58:10.430Z,1003.42
2023-05-03T11:59:10.449Z,1003.40
2023-05-03T12:00:10.502Z,1003.36
2023-05-03T12:01:10.465Z,1003.32
2023-05-03T12:02:10.561Z,1003.36
2023-05-03T12:03:10.516Z,1003.34
2023-05-03T12:04:10.654Z,1003.36
2023-05-03T12:05:11.142Z,1003.21